Time,TemperatureF,DewpointF,PressureIn,WindDirection,WindDirectionDegrees,WindSpeedMPH,WindSpeedGustMPH,Humidity,HourlyPrecipIn,Conditions,Clouds,dailyrainin,SoftwareType,DateUTC
2013-01-22 00:00:00,42.3,38.7,29.71,ESE,115,0.0,0.0,87,0.00,,CLR,0.00,VWS V14.01,2013-01-22 08:00:00,
2013-01-22 00:10:00,42.4,39.1,29.71,ESE,115,0.0,0.0,88,0.00,,CLR,0.00,VWS V14.01,2013-01-22 08:10:00,
2013-01-22 00:20:00,42.4,39.4,29.71,ESE,115,0.0,0.0,89,0.00,,CLR,0.00,VWS V14.01,2013-01-22 08:20:00,
2013-01-22 00:30:00,42.4,39.4,29.71,ESE,115,0.0,0.0,89,0.00,,CLR,0.00,VWS V14.01,2013-01-22 08:30:00,
2013-01-22 00:40:00,42.6,39.6,29.71,ESE,115,0.0,0.0,89,0.00,,CLR,0.00,VWS V14.01,2013-01-22 08:40:00,
2013-01-22 00:50:00,42.4,39.4,29.71,ESE,115,0.0,0.0,89,0.00,,CLR,0.00,VWS V14.01,2013-01-22 08:50:00,
2013-01-22 01:00:00,42.4,39.4,29.71,ESE,115,0.0,0.0,89,0.00,,CLR,0.00,VWS V14.01,2013-01-22 09:00:00,
2013-01-22 01:10:00,42.4,39.7,29.71,ESE,115,0.0,0.0,90,0.00,,CLR,0.00,VWS V14.01,2013-01-22 09:10:00,
2013-01-22 01:20:00,42.4,39.7,29.71,ESE,115,0.0,0.0,90,0.00,,CLR,0.00,VWS V14.01,2013-01-22 09:20:00,
2013-01-22 01:30:00,42.3,39.5,29.71,ESE,115,0.0,0.0,90,0.00,,CLR,0.00,VWS V14.01,2013-01-22 09:30:00,
2013-01-22 01:40:00,42.1,39.4,29.71,ESE,113,0.0,0.0,90,0.00,,CLR,0.00,VWS V14.01,2013-01-22 09:40:00,
2013-01-22 01:50:00,41.9,39.5,29.71,ESE,113,0.0,0.0,91,0.00,,,0.00,VWS V14.01,2013-01-22 09:50:00,
2013-01-22 02:00:00,41.2,38.5,29.71,ESE,113,0.0,0.0,90,0.00,,,0.00,VWS V14.01,2013-01-22 10:00:00,
2013-01-22 02:10:00,40.3,37.3,29.71,ESE,113,0.0,0.0,89,0.00,,,0.00,VWS V14.01,2013-01-22 10:10:00,
2013-01-22 02:20:00,40.5,37.8,29.71,ESE,113,0.0,0.0,90,0.00,,,0.00,VWS V14.01,2013-01-22 10:20:00,
2013-01-22 02:30:00,40.3,37.6,29.71,ESE,113,0.0,0.0,90,0.00,,,0.00,VWS V14.01,2013-01-22 10:30:00,
2013-01-22 02:40:00,39.4,36.7,29.71,ESE,113,0.0,0.0,90,0.00,,,0.00,VWS V14.01,2013-01-22 10:40:00,
2013-01-22 02:50:00,39.4,36.7,29.71,ESE,113,0.0,0.0,90,0.00,,,0.00,VWS V14.01,2013-01-22 10:50:00,
2013-01-22 03:00:00,39.9,37.8,29.71,ESE,113,0.0,0.0,92,0.00,,,0.00,VWS V14.01,2013-01-22 11:00:00,
2013-01-22 03:10:00,39.7,37.6,29.71,ESE,113,0.0,0.0,92,0.00,,,0.00,VWS V14.01,2013-01-22 11:10:00,
2013-01-22 03:20:00,39.4,37.5,29.68,ESE,113,0.0,0.0,93,0.00,,,0.00,VWS V14.01,2013-01-22 11:20:00,
2013-01-22 03:30:00,39.6,37.7,29.68,ESE,113,0.0,0.0,93,0.00,,,0.00,VWS V14.01,2013-01-22 11:30:00,
2013-01-22 03:40:00,39.7,38.2,29.68,ESE,113,0.0,0.0,94,0.00,,,0.00,VWS V14.01,2013-01-22 11:40:00,
2013-01-22 03:50:00,39.9,38.3,29.68,ESE,113,0.0,0.0,94,0.00,,,0.00,VWS V14.01,2013-01-22 11:50:00,
2013-01-22 04:00:00,38.8,37.3,29.68,ESE,113,0.0,0.0,94,0.00,,,0.00,VWS V14.01,2013-01-22 12:00:00,
2013-01-22 04:10:00,38.3,36.5,29.68,ESE,113,0.0,0.0,93,0.00,,,0.00,VWS V14.01,2013-01-22 12:10:00,
2013-01-22 04:20:00,38.1,36.5,29.68,ESE,113,0.0,0.0,94,0.00,,,0.00,VWS V14.01,2013-01-22 12:20:00,
2013-01-22 04:30:00,38.7,37.3,29.68,ESE,113,0.0,0.0,95,0.00,,,0.00,VWS V14.01,2013-01-22 12:30:00,
2013-01-22 04:40:00,38.8,37.5,29.68,ESE,113,0.0,0.0,95,0.00,,,0.00,VWS V14.01,2013-01-22 12:40:00,
2013-01-22 04:50:00,38.5,37.2,29.68,ESE,113,0.0,0.0,95,0.00,,,0.00,VWS V14.01,2013-01-22 12:50:00,
2013-01-22 05:00:00,37.9,36.6,29.68,ESE,113,0.0,0.0,95,0.00,,,0.00,VWS V14.01,2013-01-22 13:00:00,
2013-01-22 05:10:00,38.1,36.8,29.68,ESE,113,0.0,0.0,95,0.00,,,0.00,VWS V14.01,2013-01-22 13:10:00,
2013-01-22 05:20:00,38.3,37.3,29.68,ESE,113,0.0,0.0,96,0.00,,,0.00,VWS V14.01,2013-01-22 13:20:00,
2013-01-22 05:30:00,38.1,37.1,29.68,ESE,113,0.0,0.0,96,0.00,,,0.00,VWS V14.01,2013-01-22 13:30:00,
2013-01-22 05:40:00,38.3,37.3,29.68,ESE,113,0.0,0.0,96,0.00,,,0.00,VWS V14.01,2013-01-22 13:40:00,
2013-01-22 05:50:00,38.7,37.6,29.68,ESE,113,0.0,0.0,96,0.00,,CLR,0.00,VWS V14.01,2013-01-22 13:50:00,
2013-01-22 06:00:00,38.8,37.8,29.68,ESE,113,0.0,0.0,96,0.00,,CLR,0.00,VWS V14.01,2013-01-22 14:00:00,
2013-01-22 06:10:00,38.8,37.8,29.68,ESE,113,0.0,0.0,96,0.00,,CLR,0.00,VWS V14.01,2013-01-22 14:10:00,
2013-01-22 06:20:00,39.2,38.2,29.68,SW,216,0.0,0.0,96,0.00,,CLR,0.00,VWS V14.01,2013-01-22 14:20:00,
2013-01-22 06:30:00,39.4,38.3,29.68,SW,219,0.0,0.0,96,0.00,,CLR,0.00,VWS V14.01,2013-01-22 14:30:00,
2013-01-22 06:40:00,39.2,38.2,29.68,SW,219,0.0,0.0,96,0.00,,CLR,0.00,VWS V14.01,2013-01-22 14:40:00,
2013-01-22 06:50:00,38.7,37.6,29.68,SW,228,0.0,0.0,96,0.00,,CLR,0.00,VWS V14.01,2013-01-22 14:50:00,
2013-01-22 07:00:00,38.7,37.6,29.68,SSW,196,0.0,0.0,96,0.00,,CLR,0.00,VWS V14.01,2013-01-22 15:00:00,
2013-01-22 07:10:00,38.3,37.3,29.68,South,175,0.0,0.0,96,0.00,,CLR,0.00,VWS V14.01,2013-01-22 15:10:00,
2013-01-22 07:20:00,38.1,37.1,29.68,South,175,0.0,0.0,96,0.00,,CLR,0.00,VWS V14.01,2013-01-22 15:20:00,
2013-01-22 07:30:00,38.1,37.1,29.68,South,175,0.0,0.0,96,0.00,,CLR,0.00,VWS V14.01,2013-01-22 15:30:00,
2013-01-22 07:40:00,38.3,37.3,29.68,South,175,0.0,0.0,96,0.00,,CLR,0.00,VWS V14.01,2013-01-22 15:40:00,
2013-01-22 07:50:00,38.1,37.1,29.68,South,174,0.0,0.0,96,0.00,,,0.00,VWS V14.01,2013-01-22 15:50:00,
2013-01-22 08:00:00,39.0,38.0,29.68,SSE,167,0.0,0.0,96,0.00,,,0.00,VWS V14.01,2013-01-22 16:00:00,
2013-01-22 08:10:00,39.4,38.1,29.68,SE,145,0.0,0.0,95,0.00,,,0.00,VWS V14.01,2013-01-22 16:10:00,
2013-01-22 08:20:00,40.1,38.8,29.68,SE,144,0.0,0.0,95,0.00,,,0.00,VWS V14.01,2013-01-22 16:20:00,
2013-01-22 08:30:00,41.5,40.2,29.68,SE,144,0.0,0.0,95,0.00,,,0.00,VWS V14.01,2013-01-22 16:30:00,
2013-01-22 08:40:00,42.8,41.5,29.68,ESE,113,0.0,0.0,95,0.00,,,0.00,VWS V14.01,2013-01-22 16:40:00,
2013-01-22 08:50:00,43.5,41.6,29.68,ESE,113,0.0,0.0,93,0.00,,,0.00,VWS V14.01,2013-01-22 16:50:00,
2013-01-22 09:00:00,44.4,42.2,29.68,ESE,113,0.0,0.0,92,0.00,,,0.00,VWS V14.01,2013-01-22 17:00:00,
2013-01-22 09:10:00,45.5,43.0,29.68,ESE,112,0.0,0.0,91,0.00,,,0.00,VWS V14.01,2013-01-22 17:10:00,
2013-01-22 09:20:00,46.2,42.0,29.68,SW,224,0.0,2.7,85,0.00,,,0.00,VWS V14.01,2013-01-22 17:20:00,
2013-01-22 09:30:00,46.2,40.1,29.68,SW,214,0.0,4.0,79,0.00,,,0.00,VWS V14.01,2013-01-22 17:30:00,
2013-01-22 09:40:00,46.0,40.5,29.68,SW,214,0.0,0.0,81,0.00,,,0.00,VWS V14.01,2013-01-22 17:40:00,
2013-01-22 09:50:00,46.6,41.4,29.71,SW,218,0.0,0.0,82,0.00,,,0.00,VWS V14.01,2013-01-22 17:50:00,
2013-01-22 10:00:00,47.1,41.9,29.71,SW,218,0.0,0.0,82,0.00,,,0.00,VWS V14.01,2013-01-22 18:00:00,
2013-01-22 10:10:00,48.2,40.7,29.71,West,260,0.0,0.0,75,0.00,,,0.00,VWS V14.01,2013-01-22 18:10:00,
2013-01-22 10:20:00,48.7,39.4,29.71,SW,226,0.0,0.0,70,0.00,,,0.00,VWS V14.01,2013-01-22 18:20:00,
2013-01-22 10:30:00,49.6,38.8,29.71,WSW,241,2.7,2.7,66,0.00,,,0.00,VWS V14.01,2013-01-22 18:30:00,
2013-01-22 10:40:00,50.2,38.5,29.71,West,276,0.0,2.7,64,0.00,,,0.00,VWS V14.01,2013-01-22 18:40:00,
2013-01-22 10:50:00,50.4,37.8,29.71,SW,236,0.0,0.0,62,0.00,,,0.00,VWS V14.01,2013-01-22 18:50:00,
2013-01-22 11:00:00,50.5,38.0,29.71,WSW,239,0.0,0.0,62,0.00,,,0.00,VWS V14.01,2013-01-22 19:00:00,
2013-01-22 11:10:00,51.3,37.9,29.71,West,263,2.2,2.7,60,0.00,,,0.00,VWS V14.01,2013-01-22 19:10:00,
2013-01-22 11:20:00,52.3,38.9,29.71,NNW,337,0.0,2.2,60,0.00,,,0.00,VWS V14.01,2013-01-22 19:20:00,
2013-01-22 11:30:00,53.1,36.9,29.71,NNE,26,0.0,0.0,54,0.00,,,0.00,VWS V14.01,2013-01-22 19:30:00,
2013-01-22 11:40:00,53.8,38.0,29.71,WSW,253,0.0,0.0,55,0.00,,,0.00,VWS V14.01,2013-01-22 19:40:00,
2013-01-22 11:50:00,54.5,37.7,29.68,NNW,335,0.0,4.0,53,0.00,,BKN200,0.00,VWS V14.01,2013-01-22 19:50:00,
2013-01-22 12:00:00,55.2,36.9,29.68,NNW,330,0.0,0.0,50,0.00,,BKN200,0.00,VWS V14.01,2013-01-22 20:00:00,
2013-01-22 12:10:00,55.6,36.2,29.68,NE,39,0.0,2.7,48,0.00,,BKN200,0.00,VWS V14.01,2013-01-22 20:10:00,
2013-01-22 12:20:00,55.9,36.5,29.68,WNW,295,0.0,0.0,48,0.00,,BKN200,0.00,VWS V14.01,2013-01-22 20:20:00,
2013-01-22 12:30:00,57.2,37.2,29.68,North,3,0.0,0.0,47,0.00,,BKN200,0.00,VWS V14.01,2013-01-22 20:30:00,
2013-01-22 12:40:00,57.9,36.7,29.68,NE,37,0.0,5.4,45,0.00,,BKN200,0.00,VWS V14.01,2013-01-22 20:40:00,
2013-01-22 12:50:00,57.6,36.4,29.65,WNW,300,0.0,0.0,45,0.00,,BKN200,0.00,VWS V14.01,2013-01-22 20:50:00,
2013-01-22 13:00:00,58.3,37.6,29.65,NW,307,2.2,2.2,46,0.00,,BKN200,0.00,VWS V14.01,2013-01-22 21:00:00,
2013-01-22 13:10:00,58.8,38.7,29.65,SSE,162,0.0,2.2,47,0.00,,BKN200,0.00,VWS V14.01,2013-01-22 21:10:00,
2013-01-22 13:20:00,59.4,37.5,29.65,WSW,240,2.7,2.7,44,0.00,,BKN200,0.00,VWS V14.01,2013-01-22 21:20:00,
2013-01-22 13:30:00,59.5,37.6,29.62,NW,306,3.1,3.1,44,0.00,,BKN200,0.00,VWS V14.01,2013-01-22 21:30:00,
2013-01-22 13:40:00,59.7,39.5,29.62,NW,324,0.0,3.1,47,0.00,,BKN200,0.00,VWS V14.01,2013-01-22 21:40:00,
2013-01-22 13:50:00,59.4,38.6,29.62,NNW,344,0.0,0.0,46,0.00,,BKN200,0.00,VWS V14.01,2013-01-22 21:50:00,
2013-01-22 14:00:00,59.7,39.5,29.62,SW,226,4.0,4.0,47,0.00,,BKN200,0.00,VWS V14.01,2013-01-22 22:00:00,
2013-01-22 14:10:00,60.1,39.8,29.62,NNW,343,0.0,4.0,47,0.00,,BKN200,0.00,VWS V14.01,2013-01-22 22:10:00,
2013-01-22 14:20:00,59.9,39.1,29.62,NNW,337,0.0,0.0,46,0.00,,BKN200,0.00,VWS V14.01,2013-01-22 22:20:00,
2013-01-22 14:30:00,59.9,39.6,29.62,NNW,337,0.0,0.0,47,0.00,,BKN200,0.00,VWS V14.01,2013-01-22 22:30:00,
2013-01-22 14:40:00,60.1,39.8,29.62,NNW,337,0.0,0.0,47,0.00,,BKN200,0.00,VWS V14.01,2013-01-22 22:40:00,
2013-01-22 14:50:00,60.1,40.9,29.62,NNW,337,0.0,0.0,49,0.00,,BKN150,0.00,VWS V14.01,2013-01-22 22:50:00,
2013-01-22 15:00:00,60.1,39.8,29.62,NNW,337,0.0,0.0,47,0.00,,BKN150,0.00,VWS V14.01,2013-01-22 23:00:00,
2013-01-22 15:10:00,60.3,40.0,29.62,NNW,338,0.0,0.0,47,0.00,,BKN150,0.00,VWS V14.01,2013-01-22 23:10:00,
2013-01-22 15:20:00,60.1,39.8,29.62,WSW,250,0.0,0.0,47,0.00,,BKN150,0.00,VWS V14.01,2013-01-22 23:20:00,
2013-01-22 15:30:00,59.7,38.9,29.62,WSW,247,0.0,0.0,46,0.00,,BKN150,0.00,VWS V14.01,2013-01-22 23:30:00,
2013-01-22 15:40:00,59.5,39.3,29.59,SW,231,0.0,3.6,47,0.00,,BKN150,0.00,VWS V14.01,2013-01-22 23:40:00,
2013-01-22 15:50:00,59.4,39.2,29.59,WNW,294,0.0,2.7,47,0.00,,BKN200,0.00,VWS V14.01,2013-01-22 23:50:00,
2013-01-22 16:00:00,59.2,40.0,29.59,WSW,253,0.0,0.0,49,0.00,,BKN200,0.00,VWS V14.01,2013-01-23 00:00:00,
2013-01-22 16:10:00,58.8,39.2,29.59,NW,313,0.0,4.0,48,0.00,,BKN200,0.00,VWS V14.01,2013-01-23 00:10:00,
2013-01-22 16:20:00,58.5,38.9,29.59,North,357,3.6,4.0,48,0.00,,OVC200,0.00,VWS V14.01,2013-01-23 00:20:00,
2013-01-22 16:30:00,58.1,38.5,29.59,North,0,0.0,4.0,48,0.00,,OVC200,0.00,VWS V14.01,2013-01-23 00:30:00,
2013-01-22 16:40:00,57.6,38.6,29.59,NE,48,0.0,3.1,49,0.00,,OVC200,0.00,VWS V14.01,2013-01-23 00:40:00,
2013-01-22 16:50:00,57.2,38.2,29.59,NNW,328,3.1,3.6,49,0.00,,OVC200,0.00,VWS V14.01,2013-01-23 00:50:00,
2013-01-22 17:00:00,56.8,38.4,29.59,NNW,328,0.0,3.1,50,0.00,,OVC200,0.00,VWS V14.01,2013-01-23 01:00:00,
2013-01-22 17:10:00,56.3,38.9,29.59,NW,307,0.0,0.0,52,0.00,,OVC200,0.00,VWS V14.01,2013-01-23 01:10:00,
2013-01-22 17:20:00,55.8,37.9,29.59,NNW,340,0.0,0.0,51,0.00,,OVC200,0.00,VWS V14.01,2013-01-23 01:20:00,
2013-01-22 17:30:00,54.9,38.5,29.59,NNW,340,0.0,0.0,54,0.00,,OVC200,0.00,VWS V14.01,2013-01-23 01:30:00,
2013-01-22 17:40:00,54.5,38.2,29.59,ENE,74,0.0,0.0,54,0.00,,OVC200,0.00,VWS V14.01,2013-01-23 01:40:00,
2013-01-22 17:50:00,54.3,39.0,29.59,ENE,74,0.0,0.0,56,0.00,,OVC200,0.00,VWS V14.01,2013-01-23 01:50:00,
2013-01-22 18:00:00,54.1,38.3,29.59,ENE,78,0.0,0.0,55,0.00,,OVC200,0.00,VWS V14.01,2013-01-23 02:00:00,
2013-01-22 18:10:00,54.1,38.3,29.59,ENE,78,0.0,0.0,55,0.00,,OVC200,0.00,VWS V14.01,2013-01-23 02:10:00,
2013-01-22 18:20:00,53.4,38.6,29.59,ENE,78,0.0,0.0,57,0.00,,OVC200,0.00,VWS V14.01,2013-01-23 02:20:00,
2013-01-22 18:30:00,53.1,38.7,29.59,ENE,78,0.0,0.0,58,0.00,,OVC200,0.00,VWS V14.01,2013-01-23 02:30:00,
2013-01-22 18:40:00,52.9,37.2,29.59,ENE,78,0.0,0.0,55,0.00,,OVC200,0.00,VWS V14.01,2013-01-23 02:40:00,
2013-01-22 18:50:00,53.2,36.6,29.59,ENE,68,0.0,0.0,53,0.00,,BKN200,0.00,VWS V14.01,2013-01-23 02:50:00,
2013-01-22 19:00:00,52.9,37.6,29.59,ENE,68,0.0,0.0,56,0.00,,BKN200,0.00,VWS V14.01,2013-01-23 03:00:00,
2013-01-22 19:10:00,51.8,38.8,29.59,ENE,68,0.0,0.0,61,0.00,,BKN200,0.00,VWS V14.01,2013-01-23 03:10:00,
2013-01-22 19:20:00,51.6,40.2,29.59,ENE,68,0.0,0.0,65,0.00,,BKN200,0.00,VWS V14.01,2013-01-23 03:20:00,
2013-01-22 19:30:00,51.4,40.9,29.59,ENE,68,0.0,0.0,67,0.00,,BKN200,0.00,VWS V14.01,2013-01-23 03:30:00,
2013-01-22 19:40:00,51.1,40.9,29.59,ENE,68,0.0,0.0,68,0.00,,BKN200,0.00,VWS V14.01,2013-01-23 03:40:00,
2013-01-22 19:50:00,50.9,41.1,29.59,ENE,68,0.0,0.0,69,0.00,,BKN200,0.00,VWS V14.01,2013-01-23 03:50:00,
2013-01-22 20:00:00,50.9,41.5,29.59,ENE,68,0.0,0.0,70,0.00,,BKN200,0.00,VWS V14.01,2013-01-23 04:00:00,
2013-01-22 20:10:00,50.7,41.3,29.59,ENE,68,0.0,0.0,70,0.00,,BKN200,0.00,VWS V14.01,2013-01-23 04:10:00,
2013-01-22 20:20:00,50.7,41.7,29.59,ENE,68,0.0,0.0,71,0.00,,BKN200,0.00,VWS V14.01,2013-01-23 04:20:00,
2013-01-22 20:30:00,50.4,41.7,29.62,ENE,68,0.0,0.0,72,0.00,,BKN200,0.00,VWS V14.01,2013-01-23 04:30:00,
2013-01-22 20:40:00,50.2,41.5,29.62,ENE,68,0.0,0.0,72,0.00,,BKN200,0.00,VWS V14.01,2013-01-23 04:40:00,
2013-01-22 20:50:00,50.2,41.9,29.62,ENE,68,0.0,0.0,73,0.00,,CLR,0.00,VWS V14.01,2013-01-23 04:50:00,
2013-01-22 21:10:00,49.6,41.7,29.59,ENE,68,0.0,0.0,74,0.00,,CLR,0.00,VWS V14.01,2013-01-23 05:10:00,
2013-01-22 21:20:00,49.6,42.0,29.59,ENE,68,0.0,0.0,75,0.00,,CLR,0.00,VWS V14.01,2013-01-23 05:20:00,
2013-01-22 21:30:00,49.3,41.7,29.59,ENE,68,0.0,0.0,75,0.00,,CLR,0.00,VWS V14.01,2013-01-23 05:30:00,
2013-01-22 21:40:00,48.9,41.4,29.59,ENE,68,0.0,0.0,75,0.00,,CLR,0.00,VWS V14.01,2013-01-23 05:40:00,
2013-01-22 21:50:00,48.6,41.0,29.59,ENE,68,0.0,0.0,75,0.00,,CLR,0.00,VWS V14.01,2013-01-23 05:50:00,
2013-01-22 22:00:00,48.2,40.7,29.59,ENE,68,0.0,0.0,75,0.00,,CLR,0.00,VWS V14.01,2013-01-23 06:00:00,
2013-01-22 22:10:00,48.0,40.8,29.62,ENE,68,0.0,0.0,76,0.00,,CLR,0.00,VWS V14.01,2013-01-23 06:10:00,
2013-01-22 22:20:00,48.2,41.0,29.62,ENE,68,0.0,0.0,76,0.00,,CLR,0.00,VWS V14.01,2013-01-23 06:20:00,
2013-01-22 22:30:00,48.2,41.3,29.62,ENE,68,0.0,0.0,77,0.00,,CLR,0.00,VWS V14.01,2013-01-23 06:30:00,
2013-01-22 22:40:00,48.4,41.5,29.62,ENE,68,0.0,0.0,77,0.00,,CLR,0.00,VWS V14.01,2013-01-23 06:40:00,
2013-01-22 22:50:00,48.4,41.5,29.62,ENE,68,0.0,0.0,77,0.00,,CLR,0.00,VWS V14.01,2013-01-23 06:50:00,
2013-01-22 23:00:00,48.6,41.7,29.62,ENE,68,0.0,0.0,77,0.00,,CLR,0.00,VWS V14.01,2013-01-23 07:00:00,
2013-01-22 23:10:00,48.7,42.2,29.62,ENE,68,0.0,0.0,78,0.00,,CLR,0.00,VWS V14.01,2013-01-23 07:10:00,
2013-01-22 23:20:00,48.6,41.7,29.62,ENE,68,0.0,0.0,77,0.00,,CLR,0.00,VWS V14.01,2013-01-23 07:20:00,
2013-01-22 23:30:00,48.6,41.7,29.62,ENE,68,0.0,0.0,77,0.00,,CLR,0.00,VWS V14.01,2013-01-23 07:30:00,
2013-01-22 23:40:00,48.6,42.0,29.62,ENE,68,0.0,0.0,78,0.00,,CLR,0.00,VWS V14.01,2013-01-23 07:40:00,
2013-01-22 23:50:00,48.2,41.7,29.62,ENE,68,0.0,0.0,78,0.00,,CLR,0.00,VWS V14.01,2013-01-23 07:50:00,